Oshawa Airport
CYOO : now visible

Airfield :











YOU CAN JOIN US ON...

 
LOGIN :

Register | Disclaimer

   EN    FR    IT 

 









Legend :    VFR   Marginal VFR   IFR   Intensive IFR   Very Intensive IFR
Visi :
Ceiling :
>= 8 km
>= 3000ft
5 to 8 km
1000 to 3000 ft
1500m to 5 km
500 to 1000 ft
800 to 1500m
200 to 500 ft
< 800m
< 200 ft
Symbols :   Thunderstorms  Fog  Heavy snow  Heavy precipitations  Wind > 20 kt






- Airport Elevation : 459 ft
- IATA code : YOO


CYOO - Oshawa

CURRENT METAR :
  • 220000Z AUTO 22008G16KT 9SM SCT018 BKN025 BKN055 BKN100 16/15 A2966 RMK LTNG DIST E SW SLP047 DENSITY ALT 1000FT

EXPIRED METARs :
  • 212356Z AUTO 22008G16KT 9SM SCT018 BKN028 BKN055 OVC100 16/15 A2966 RMK LTNG DIST E SW SLP047 DENSITY ALT 1000FT
  • 212338Z AUTO 22010G16KT 9SM BKN018 BKN025 OVC033 16/15 A2967 RMK SLP050 DENSITY ALT 1000FT
  • 212331Z AUTO 23011G16KT 9SM SCT019 BKN026 BKN036 OVC096 16/15 A2967 RMK SLP050 DENSITY ALT 1000FT
  • 212321Z AUTO 22009KT 9SM BKN023 BKN032 BKN091 16/15 A2968 RMK SLP051 DENSITY ALT 1000FT
  • 212305Z AUTO 21008G16KT 9SM FEW014 SCT023 BKN039 OVC096 16/15 A2967 RMK SLP050 DENSITY ALT 1100FT
  • 212255Z AUTO 23011KT 9SM FEW014 BKN023 BKN034 OVC041 16/15 A2968 RMK SLP051 DENSITY ALT 1000FT
  • 212223Z AUTO 22009G16KT 9SM FEW017 SCT021 BKN026 OVC034 16/15 A2968 RMK SLP053 DENSITY ALT 1100FT
  • 212212Z AUTO 23010G19KT 9SM SCT015 BKN021 OVC036 17/15 A2968 RMK SLP054 DENSITY ALT 1100FT
  • 212141Z AUTO 22010G18KT 9SM SCT019 BKN025 OVC033 16/15 A2968 RMK SLP054 DENSITY ALT 1000FT

TAF TAF CYOO
Valid from the 21 at 20:00 until the 22 at 08:00 UTC


211938Z 2120/2208 20008KT P6SM BKN025
TEMPO 2120/2122 BKN012 OVC025
FM212200 21012G22KT P6SM -SHRA BKN025
TEMPO 2122/2202 5SM -SHRA BR BKN008 OVC025
PROB30 2122/2202 VRB15G25KT 21/2SM +TSRA BR BKN008 BKN015 OVC025CB
FM220200 26010G20KT P6SM -RA OVC015
TEMPO 2202/2204 5SM -RA BR BKN008 OVC015
FM220400 32010G20KT P6SM BKN015 OVC025 RMK FCST BASED ON AUTO OBS. NXT FCST BY 220200Z
CZYZ FIR / North America



MET'MAP, your aeronautical weather chart ! - Copyright ORBIFLY December 2007 - Disclaimer

ORBIFLY MET'MAP TEAM :

Programming & Development : Alexandra Zaïnal
Concept & original design : Baudouin d'Aumeries
Assistance for programming : Marc-Olivier Méhu
Technical & hardware support : Manuel Goepfert

Contact : metmap@orbifly.com




SOURCES & CREDITS :

   NOAA       Earth
Advisory